HVN1 VVTS-VVCR
Flight info
| Callsign | HVN1 |
|---|---|
| Flight time | 0h 59m |
| Altitude | 23000 |
| Route | BIXEX5H BIXEX W15 BANKE BANKE1A |
| Aircraft | A321/M-SDE3FGHIRWY/LB1 |
Departure
| Time | 2026-05-06 07:24 |
|---|---|
| Airport | Tan Son Nhat International Airport (VVTS) |
Arrival
| Time | 2026-05-06 08:23 |
|---|---|
| Airport | Cam Ranh International Airport / Cam Ranh Air Base (VVCR) |
| Time | Latitude | Longitude | Altitude | Speed | Heading |
|---|---|---|---|---|---|
| 2026-05-06 06:59 | 10.81708 | 106.66246 | 37 ft | 0 kts | 158° |
| 2026-05-06 07:12 | 10.81726 | 106.66240 | 57 ft | 4 kts | 158° |
| 2026-05-06 07:12 | 10.81751 | 106.66230 | 34 ft | 4 kts | 158° |
| 2026-05-06 07:12 | 10.81773 | 106.66221 | 36 ft | 4 kts | 167° |
| 2026-05-06 07:12 | 10.81795 | 106.66224 | 35 ft | 4 kts | 222° |
| 2026-05-06 07:13 | 10.81812 | 106.66245 | 35 ft | 4 kts | 244° |
| 2026-05-06 07:13 | 10.81818 | 106.66259 | 37 ft | 0 kts | 249° |
| 2026-05-06 07:16 | 10.81814 | 106.66248 | 36 ft | 4 kts | 250° |
| 2026-05-06 07:17 | 10.81799 | 106.66203 | 37 ft | 9 kts | 251° |
| 2026-05-06 07:17 | 10.81773 | 106.66137 | 35 ft | 10 kts | 248° |
| 2026-05-06 07:17 | 10.81748 | 106.66071 | 37 ft | 10 kts | 250° |
| 2026-05-06 07:17 | 10.81727 | 106.66010 | 37 ft | 9 kts | 251° |
| 2026-05-06 07:18 | 10.81705 | 106.65952 | 37 ft | 9 kts | 248° |
| 2026-05-06 07:18 | 10.81680 | 106.65887 | 36 ft | 12 kts | 249° |
| 2026-05-06 07:18 | 10.81641 | 106.65783 | 36 ft | 17 kts | 248° |
| 2026-05-06 07:18 | 10.81596 | 106.65671 | 37 ft | 18 kts | 249° |
| 2026-05-06 07:19 | 10.81551 | 106.65548 | 36 ft | 19 kts | 250° |
| 2026-05-06 07:19 | 10.81499 | 106.65418 | 37 ft | 20 kts | 250° |
| 2026-05-06 07:19 | 10.81450 | 106.65282 | 37 ft | 21 kts | 248° |
| 2026-05-06 07:19 | 10.81394 | 106.65138 | 37 ft | 22 kts | 249° |
| 2026-05-06 07:20 | 10.81337 | 106.64988 | 36 ft | 23 kts | 249° |
| 2026-05-06 07:20 | 10.81278 | 106.64832 | 38 ft | 24 kts | 248° |
| 2026-05-06 07:20 | 10.81216 | 106.64668 | 38 ft | 25 kts | 248° |
| 2026-05-06 07:20 | 10.81152 | 106.64498 | 38 ft | 26 kts | 249° |
| 2026-05-06 07:21 | 10.81084 | 106.64319 | 35 ft | 28 kts | 249° |
| 2026-05-06 07:21 | 10.81014 | 106.64129 | 34 ft | 29 kts | 250° |
| 2026-05-06 07:21 | 10.80949 | 106.63965 | 36 ft | 2 kts | 247° |
| 2026-05-06 07:21 | 10.80947 | 106.63960 | 36 ft | 5 kts | 247° |
| 2026-05-06 07:22 | 10.80931 | 106.63853 | 37 ft | 17 kts | 274° |
| 2026-05-06 07:22 | 10.80989 | 106.63760 | 36 ft | 16 kts | 326° |
| 2026-05-06 07:22 | 10.81089 | 106.63715 | 35 ft | 16 kts | 339° |
| 2026-05-06 07:22 | 10.81141 | 106.63719 | 35 ft | 6 kts | 50° |
| 2026-05-06 07:23 | 10.81167 | 106.63767 | 32 ft | 12 kts | 68° |
| 2026-05-06 07:23 | 10.81281 | 106.64076 | 34 ft | 86 kts | 71° |
| 2026-05-06 07:23 | 10.81571 | 106.64865 | 41 ft | 150 kts | 69° |
| 2026-05-06 07:23 | 10.81704 | 106.65206 | 39 ft | 168 kts | 69° |
| 2026-05-06 07:24 | 10.82577 | 106.67386 | 559 ft | 208 kts | 63° |
| 2026-05-06 07:24 | 10.83172 | 106.68717 | 1310 ft | 207 kts | 66° |
| 2026-05-06 07:25 | 10.84975 | 106.73251 | 1897 ft | 263 kts | 64° |
| 2026-05-06 07:25 | 10.85737 | 106.74960 | 2505 ft | 266 kts | 64° |
| 2026-05-06 07:25 | 10.86787 | 106.76497 | 3165 ft | 266 kts | 46° |
| 2026-05-06 07:25 | 10.88245 | 106.77662 | 3824 ft | 268 kts | 31° |
| 2026-05-06 07:26 | 10.89826 | 106.78676 | 4491 ft | 270 kts | 34° |
| 2026-05-06 07:26 | 10.91450 | 106.79659 | 5142 ft | 272 kts | 31° |
| 2026-05-06 07:26 | 10.93111 | 106.80585 | 5819 ft | 272 kts | 31° |
| 2026-05-06 07:26 | 10.94765 | 106.81524 | 6474 ft | 272 kts | 31° |
| 2026-05-06 07:27 | 10.96416 | 106.82486 | 7014 ft | 277 kts | 32° |
| 2026-05-06 07:27 | 10.98089 | 106.83491 | 7530 ft | 281 kts | 32° |
| 2026-05-06 07:27 | 10.99773 | 106.84510 | 8117 ft | 283 kts | 31° |
| 2026-05-06 07:27 | 11.01475 | 106.85538 | 8681 ft | 286 kts | 32° |
| 2026-05-06 07:28 | 11.03198 | 106.86573 | 9258 ft | 288 kts | 32° |
| 2026-05-06 07:28 | 11.04910 | 106.87596 | 9853 ft | 290 kts | 32° |
| 2026-05-06 07:28 | 11.08582 | 106.89788 | 10264 ft | 323 kts | 32° |
| 2026-05-06 07:29 | 11.10572 | 106.90975 | 10391 ft | 339 kts | 32° |
| 2026-05-06 07:29 | 11.12656 | 106.92214 | 10499 ft | 354 kts | 31° |
| 2026-05-06 07:29 | 11.14825 | 106.93503 | 10627 ft | 368 kts | 31° |
| 2026-05-06 07:29 | 11.17067 | 106.94837 | 10850 ft | 376 kts | 31° |
| 2026-05-06 07:30 | 11.19342 | 106.96191 | 11223 ft | 380 kts | 31° |
| 2026-05-06 07:30 | 11.21639 | 106.97555 | 11624 ft | 383 kts | 31° |
| 2026-05-06 07:30 | 11.23911 | 106.98904 | 12026 ft | 384 kts | 32° |
| 2026-05-06 07:30 | 11.26227 | 107.00280 | 12420 ft | 387 kts | 31° |
| 2026-05-06 07:31 | 11.28561 | 107.01667 | 12831 ft | 389 kts | 31° |
| 2026-05-06 07:31 | 11.30932 | 107.03083 | 13234 ft | 391 kts | 32° |
| 2026-05-06 07:31 | 11.33122 | 107.04734 | 13608 ft | 393 kts | 44° |
| 2026-05-06 07:31 | 11.34919 | 107.06794 | 13907 ft | 395 kts | 55° |
| 2026-05-06 07:32 | 11.36275 | 107.09232 | 14226 ft | 397 kts | 67° |
| 2026-05-06 07:32 | 11.37088 | 107.11926 | 14590 ft | 399 kts | 77° |
| 2026-05-06 07:32 | 11.37716 | 107.14687 | 14933 ft | 401 kts | 77° |
| 2026-05-06 07:32 | 11.38359 | 107.17465 | 15269 ft | 403 kts | 77° |
| 2026-05-06 07:33 | 11.39009 | 107.20258 | 15600 ft | 405 kts | 77° |
| 2026-05-06 07:33 | 11.39660 | 107.23059 | 15925 ft | 407 kts | 77° |
| 2026-05-06 07:33 | 11.40313 | 107.25882 | 16240 ft | 409 kts | 77° |
| 2026-05-06 07:33 | 11.40967 | 107.28712 | 16560 ft | 411 kts | 77° |
| 2026-05-06 07:34 | 11.41624 | 107.31556 | 16881 ft | 413 kts | 77° |
| 2026-05-06 07:34 | 11.42281 | 107.34419 | 17199 ft | 415 kts | 77° |
| 2026-05-06 07:34 | 11.42939 | 107.37297 | 17497 ft | 417 kts | 77° |
| 2026-05-06 07:34 | 11.43599 | 107.40183 | 17807 ft | 419 kts | 77° |
| 2026-05-06 07:35 | 11.44263 | 107.43082 | 18109 ft | 421 kts | 77° |
| 2026-05-06 07:35 | 11.44922 | 107.45960 | 18368 ft | 423 kts | 77° |
| 2026-05-06 07:35 | 11.45591 | 107.48892 | 18642 ft | 425 kts | 77° |
| 2026-05-06 07:35 | 11.46261 | 107.51827 | 18901 ft | 426 kts | 77° |
| 2026-05-06 07:36 | 11.46933 | 107.54777 | 19160 ft | 428 kts | 77° |
| 2026-05-06 07:36 | 11.47611 | 107.57745 | 19418 ft | 429 kts | 77° |
| 2026-05-06 07:36 | 11.48289 | 107.60721 | 19698 ft | 431 kts | 77° |
| 2026-05-06 07:36 | 11.48968 | 107.63705 | 19949 ft | 433 kts | 77° |
| 2026-05-06 07:37 | 11.49651 | 107.66707 | 20184 ft | 435 kts | 77° |
| 2026-05-06 07:37 | 11.50339 | 107.69713 | 20448 ft | 436 kts | 77° |
| 2026-05-06 07:37 | 11.51030 | 107.72733 | 20684 ft | 438 kts | 77° |
| 2026-05-06 07:37 | 11.51722 | 107.75762 | 20942 ft | 439 kts | 77° |
| 2026-05-06 07:38 | 11.52413 | 107.78797 | 21176 ft | 441 kts | 77° |
| 2026-05-06 07:38 | 11.53107 | 107.81853 | 21401 ft | 442 kts | 78° |
| 2026-05-06 07:38 | 11.53803 | 107.84914 | 21641 ft | 444 kts | 77° |
| 2026-05-06 07:38 | 11.54504 | 107.87983 | 21839 ft | 445 kts | 77° |
| 2026-05-06 07:39 | 11.55205 | 107.91062 | 22077 ft | 446 kts | 77° |
| 2026-05-06 07:39 | 11.55909 | 107.94161 | 22269 ft | 448 kts | 77° |
| 2026-05-06 07:39 | 11.56602 | 107.97222 | 22477 ft | 450 kts | 78° |
| 2026-05-06 07:39 | 11.57306 | 108.00338 | 22717 ft | 452 kts | 77° |
| 2026-05-06 07:40 | 11.58013 | 108.03463 | 22861 ft | 453 kts | 77° |
| 2026-05-06 07:40 | 11.58723 | 108.06612 | 22897 ft | 458 kts | 77° |
| 2026-05-06 07:40 | 11.59443 | 108.09794 | 22893 ft | 462 kts | 77° |
| 2026-05-06 07:40 | 11.60383 | 108.12929 | 22909 ft | 463 kts | 69° |
| 2026-05-06 07:41 | 11.61822 | 108.15871 | 22911 ft | 465 kts | 59° |
| 2026-05-06 07:41 | 11.63655 | 108.18581 | 22907 ft | 465 kts | 55° |
| 2026-05-06 07:41 | 11.65539 | 108.21266 | 22910 ft | 466 kts | 55° |
| 2026-05-06 07:41 | 11.67433 | 108.23985 | 22492 ft | 471 kts | 55° |
| 2026-05-06 07:42 | 11.69322 | 108.26710 | 21797 ft | 468 kts | 56° |
| 2026-05-06 07:42 | 11.71188 | 108.29406 | 21187 ft | 463 kts | 56° |
| 2026-05-06 07:42 | 11.73040 | 108.32083 | 20614 ft | 459 kts | 56° |
| 2026-05-06 07:42 | 11.74745 | 108.34818 | 20061 ft | 454 kts | 63° |
| 2026-05-06 07:43 | 11.76005 | 108.37735 | 19603 ft | 444 kts | 71° |
| 2026-05-06 07:43 | 11.76863 | 108.40683 | 19157 ft | 433 kts | 75° |
| 2026-05-06 07:43 | 11.77684 | 108.43641 | 18703 ft | 423 kts | 75° |
| 2026-05-06 07:43 | 11.78471 | 108.46456 | 18273 ft | 413 kts | 74° |
| 2026-05-06 07:44 | 11.79255 | 108.49255 | 17772 ft | 406 kts | 74° |
| 2026-05-06 07:44 | 11.80024 | 108.52005 | 17261 ft | 399 kts | 75° |
| 2026-05-06 07:44 | 11.80776 | 108.54703 | 16770 ft | 392 kts | 75° |
| 2026-05-06 07:44 | 11.81517 | 108.57359 | 16274 ft | 386 kts | 75° |
| 2026-05-06 07:45 | 11.82248 | 108.59980 | 15801 ft | 380 kts | 75° |
| 2026-05-06 07:45 | 11.82965 | 108.62557 | 15328 ft | 374 kts | 75° |
| 2026-05-06 07:45 | 11.83672 | 108.65091 | 14864 ft | 369 kts | 75° |
| 2026-05-06 07:45 | 11.84367 | 108.67563 | 14427 ft | 364 kts | 74° |
| 2026-05-06 07:46 | 11.85064 | 108.70029 | 13973 ft | 359 kts | 75° |
| 2026-05-06 07:46 | 11.85756 | 108.72464 | 13488 ft | 355 kts | 74° |
| 2026-05-06 07:46 | 11.86441 | 108.74870 | 12984 ft | 350 kts | 74° |
| 2026-05-06 07:46 | 11.87112 | 108.77241 | 12583 ft | 343 kts | 74° |
| 2026-05-06 07:47 | 11.87767 | 108.79556 | 12187 ft | 336 kts | 75° |
| 2026-05-06 07:47 | 11.88408 | 108.81821 | 11825 ft | 329 kts | 74° |
| 2026-05-06 07:47 | 11.89034 | 108.84045 | 11469 ft | 323 kts | 74° |
| 2026-05-06 07:47 | 11.89644 | 108.86231 | 11091 ft | 317 kts | 76° |
| 2026-05-06 07:48 | 11.90059 | 108.88419 | 10743 ft | 311 kts | 80° |
| 2026-05-06 07:48 | 11.90422 | 108.90553 | 10402 ft | 306 kts | 80° |
| 2026-05-06 07:48 | 11.90792 | 108.92710 | 10048 ft | 302 kts | 80° |
| 2026-05-06 07:48 | 11.91148 | 108.94766 | 9887 ft | 292 kts | 79° |
| 2026-05-06 07:49 | 11.91493 | 108.96776 | 9879 ft | 288 kts | 79° |
| 2026-05-06 07:49 | 11.91838 | 108.98791 | 9745 ft | 289 kts | 80° |
| 2026-05-06 07:49 | 11.92184 | 109.00807 | 9620 ft | 288 kts | 80° |
| 2026-05-06 07:49 | 11.92530 | 109.02813 | 9491 ft | 286 kts | 79° |
| 2026-05-06 07:50 | 11.92877 | 109.04821 | 9363 ft | 287 kts | 79° |
| 2026-05-06 07:50 | 11.93222 | 109.06825 | 9237 ft | 286 kts | 79° |
| 2026-05-06 07:50 | 11.93566 | 109.08827 | 9111 ft | 284 kts | 79° |
| 2026-05-06 07:50 | 11.93910 | 109.10813 | 8986 ft | 284 kts | 79° |
| 2026-05-06 07:51 | 11.94252 | 109.12805 | 8849 ft | 284 kts | 79° |
| 2026-05-06 07:51 | 11.94591 | 109.14784 | 8724 ft | 281 kts | 79° |
| 2026-05-06 07:51 | 11.94927 | 109.16750 | 8615 ft | 282 kts | 79° |
| 2026-05-06 07:51 | 11.95264 | 109.18726 | 8475 ft | 283 kts | 79° |
| 2026-05-06 07:52 | 11.95529 | 109.20710 | 8349 ft | 282 kts | 88° |
| 2026-05-06 07:52 | 11.95327 | 109.22694 | 8210 ft | 283 kts | 103° |
| 2026-05-06 07:52 | 11.94696 | 109.24596 | 8008 ft | 282 kts | 109° |
| 2026-05-06 07:52 | 11.94026 | 109.26457 | 7729 ft | 277 kts | 108° |
| 2026-05-06 07:53 | 11.93370 | 109.28286 | 7456 ft | 271 kts | 108° |
| 2026-05-06 07:53 | 11.92719 | 109.30075 | 7197 ft | 266 kts | 111° |
| 2026-05-06 07:53 | 11.91672 | 109.31585 | 6948 ft | 260 kts | 138° |
| 2026-05-06 07:53 | 11.90083 | 109.32421 | 6697 ft | 259 kts | 166° |
| 2026-05-06 07:54 | 11.88330 | 109.32415 | 6427 ft | 255 kts | 193° |
| 2026-05-06 07:54 | 11.86674 | 109.31829 | 6169 ft | 250 kts | 199° |
| 2026-05-06 07:54 | 11.85057 | 109.31226 | 5894 ft | 244 kts | 199° |
| 2026-05-06 07:54 | 11.83474 | 109.30637 | 5680 ft | 240 kts | 198° |
| 2026-05-06 07:55 | 11.81959 | 109.29924 | 5412 ft | 241 kts | 214° |
| 2026-05-06 07:55 | 11.80794 | 109.28706 | 5142 ft | 241 kts | 238° |
| 2026-05-06 07:55 | 11.80166 | 109.27143 | 4837 ft | 237 kts | 259° |
| 2026-05-06 07:55 | 11.80141 | 109.25476 | 4219 ft | 234 kts | 282° |
| 2026-05-06 07:56 | 11.80691 | 109.23957 | 3650 ft | 225 kts | 300° |
| 2026-05-06 07:56 | 11.81370 | 109.22557 | 3285 ft | 210 kts | 298° |
| 2026-05-06 07:56 | 11.81968 | 109.21303 | 3226 ft | 183 kts | 298° |
| 2026-05-06 07:56 | 11.82502 | 109.20176 | 3195 ft | 172 kts | 298° |
| 2026-05-06 07:57 | 11.83018 | 109.19084 | 3195 ft | 172 kts | 301° |
| 2026-05-06 07:57 | 11.83687 | 109.18120 | 3057 ft | 166 kts | 320° |
| 2026-05-06 07:57 | 11.84642 | 109.17485 | 2955 ft | 160 kts | 343° |
| 2026-05-06 07:57 | 11.85741 | 109.17375 | 2829 ft | 159 kts | 12° |
| 2026-05-06 07:58 | 11.86762 | 109.17696 | 2647 ft | 157 kts | 12° |
| 2026-05-06 07:58 | 11.87791 | 109.18054 | 2458 ft | 153 kts | 26° |
| 2026-05-06 07:58 | 11.88808 | 109.18394 | 2195 ft | 153 kts | 22° |
| 2026-05-06 07:58 | 11.89816 | 109.18718 | 1878 ft | 149 kts | 19° |
| 2026-05-06 07:59 | 11.90788 | 109.19058 | 1784 ft | 148 kts | 20° |
| 2026-05-06 07:59 | 11.91761 | 109.19419 | 1498 ft | 149 kts | 19° |
| 2026-05-06 07:59 | 11.92722 | 109.19735 | 1398 ft | 146 kts | 24° |
| 2026-05-06 07:59 | 11.93699 | 109.20094 | 1091 ft | 151 kts | 21° |
| 2026-05-06 08:00 | 11.94343 | 109.20323 | 933 ft | 143 kts | 21° |
| 2026-05-06 08:00 | 11.95267 | 109.20686 | 831 ft | 140 kts | 27° |
| 2026-05-06 08:00 | 11.96228 | 109.20995 | 540 ft | 146 kts | 21° |
| 2026-05-06 08:00 | 11.97212 | 109.21314 | 292 ft | 153 kts | 21° |
| 2026-05-06 08:01 | 11.98206 | 109.21656 | 99 ft | 152 kts | 10° |
| 2026-05-06 08:01 | 11.99229 | 109.21878 | 510 ft | 155 kts | 18° |
| 2026-05-06 08:01 | 12.00320 | 109.22065 | 1184 ft | 168 kts | 11° |
| 2026-05-06 08:01 | 12.01479 | 109.22345 | 1931 ft | 177 kts | 23° |
| 2026-05-06 08:02 | 12.02676 | 109.22860 | 2161 ft | 197 kts | 25° |
| 2026-05-06 08:02 | 12.03996 | 109.23451 | 2303 ft | 218 kts | 25° |
| 2026-05-06 08:02 | 12.05379 | 109.24195 | 2610 ft | 229 kts | 43° |
| 2026-05-06 08:02 | 12.06157 | 109.25596 | 3188 ft | 234 kts | 79° |
| 2026-05-06 08:03 | 12.06317 | 109.27264 | 3770 ft | 239 kts | 86° |
| 2026-05-06 08:03 | 12.06353 | 109.28944 | 3954 ft | 238 kts | 88° |
| 2026-05-06 08:03 | 12.06352 | 109.30639 | 4000 ft | 238 kts | 89° |
| 2026-05-06 08:03 | 12.06351 | 109.32338 | 4005 ft | 239 kts | 88° |
| 2026-05-06 08:04 | 12.06361 | 109.34027 | 4008 ft | 238 kts | 87° |
| 2026-05-06 08:04 | 12.06383 | 109.35715 | 4007 ft | 237 kts | 88° |
| 2026-05-06 08:04 | 12.06413 | 109.37403 | 4008 ft | 238 kts | 86° |
| 2026-05-06 08:04 | 12.06449 | 109.39097 | 4009 ft | 239 kts | 86° |
| 2026-05-06 08:05 | 12.06484 | 109.40786 | 4004 ft | 238 kts | 88° |
| 2026-05-06 08:05 | 12.06158 | 109.42436 | 4003 ft | 240 kts | 111° |
| 2026-05-06 08:05 | 12.05199 | 109.43846 | 4004 ft | 246 kts | 135° |
| 2026-05-06 08:05 | 12.03755 | 109.44793 | 4007 ft | 249 kts | 152° |
| 2026-05-06 08:06 | 12.02193 | 109.45574 | 4004 ft | 250 kts | 151° |
| 2026-05-06 08:06 | 12.00636 | 109.46368 | 4007 ft | 250 kts | 151° |
| 2026-05-06 08:06 | 11.99115 | 109.47149 | 4003 ft | 247 kts | 151° |
| 2026-05-06 08:06 | 11.97564 | 109.47947 | 4006 ft | 251 kts | 150° |
| 2026-05-06 08:07 | 11.96000 | 109.48753 | 4005 ft | 252 kts | 150° |
| 2026-05-06 08:07 | 11.94432 | 109.49559 | 4003 ft | 252 kts | 151° |
| 2026-05-06 08:07 | 11.92860 | 109.50364 | 4001 ft | 253 kts | 150° |
| 2026-05-06 08:07 | 11.91282 | 109.51169 | 3999 ft | 253 kts | 150° |
| 2026-05-06 08:08 | 11.89709 | 109.51973 | 3995 ft | 252 kts | 150° |
| 2026-05-06 08:08 | 11.88140 | 109.52776 | 3999 ft | 252 kts | 150° |
| 2026-05-06 08:08 | 11.86578 | 109.53576 | 3995 ft | 251 kts | 151° |
| 2026-05-06 08:08 | 11.85016 | 109.54376 | 3996 ft | 251 kts | 152° |
| 2026-05-06 08:09 | 11.83454 | 109.55175 | 3998 ft | 251 kts | 150° |
| 2026-05-06 08:09 | 11.82045 | 109.56181 | 3997 ft | 246 kts | 127° |
| 2026-05-06 08:09 | 11.81229 | 109.57692 | 3996 ft | 244 kts | 101° |
| 2026-05-06 08:09 | 11.81250 | 109.59386 | 4000 ft | 240 kts | 70° |
| 2026-05-06 08:10 | 11.82054 | 109.60867 | 3999 ft | 240 kts | 56° |
| 2026-05-06 08:10 | 11.82907 | 109.62336 | 3997 ft | 240 kts | 61° |
| 2026-05-06 08:10 | 11.83746 | 109.63818 | 3996 ft | 242 kts | 52° |
| 2026-05-06 08:10 | 11.85049 | 109.64877 | 4000 ft | 243 kts | 25° |
| 2026-05-06 08:11 | 11.86700 | 109.65207 | 3996 ft | 246 kts | 358° |
| 2026-05-06 08:11 | 11.88323 | 109.64721 | 3995 ft | 250 kts | 330° |
| 2026-05-06 08:11 | 11.89571 | 109.63490 | 3996 ft | 254 kts | 302° |
| 2026-05-06 08:11 | 11.90103 | 109.61772 | 3991 ft | 258 kts | 272° |
| 2026-05-06 08:12 | 11.89753 | 109.59990 | 3999 ft | 258 kts | 242° |
| 2026-05-06 08:12 | 11.88610 | 109.58594 | 3994 ft | 259 kts | 215° |
| 2026-05-06 08:12 | 11.87148 | 109.57509 | 3997 ft | 261 kts | 214° |
| 2026-05-06 08:12 | 11.85680 | 109.56423 | 3998 ft | 260 kts | 215° |
| 2026-05-06 08:13 | 11.84347 | 109.55180 | 3992 ft | 261 kts | 233° |
| 2026-05-06 08:13 | 11.83496 | 109.53546 | 3996 ft | 260 kts | 253° |
| 2026-05-06 08:13 | 11.83105 | 109.51748 | 4004 ft | 260 kts | 259° |
| 2026-05-06 08:13 | 11.82743 | 109.49934 | 4003 ft | 260 kts | 259° |
| 2026-05-06 08:14 | 11.82374 | 109.48120 | 3982 ft | 261 kts | 259° |
| 2026-05-06 08:14 | 11.82000 | 109.46305 | 3737 ft | 260 kts | 259° |
| 2026-05-06 08:14 | 11.81629 | 109.44503 | 3643 ft | 258 kts | 259° |
| 2026-05-06 08:14 | 11.81264 | 109.42735 | 3566 ft | 258 kts | 259° |
| 2026-05-06 08:15 | 11.80898 | 109.40953 | 3492 ft | 257 kts | 259° |
| 2026-05-06 08:15 | 11.80533 | 109.39168 | 3441 ft | 256 kts | 260° |
| 2026-05-06 08:15 | 11.80169 | 109.37390 | 3383 ft | 256 kts | 259° |
| 2026-05-06 08:15 | 11.79803 | 109.35612 | 3312 ft | 256 kts | 260° |
| 2026-05-06 08:16 | 11.79436 | 109.33827 | 3249 ft | 257 kts | 259° |
| 2026-05-06 08:16 | 11.79073 | 109.32049 | 3182 ft | 255 kts | 259° |
| 2026-05-06 08:16 | 11.78795 | 109.30265 | 3116 ft | 253 kts | 270° |
| 2026-05-06 08:16 | 11.78888 | 109.28523 | 3074 ft | 237 kts | 282° |
| 2026-05-06 08:17 | 11.79309 | 109.26936 | 2999 ft | 227 kts | 294° |
| 2026-05-06 08:17 | 11.79967 | 109.25506 | 2938 ft | 225 kts | 300° |
| 2026-05-06 08:17 | 11.80652 | 109.24088 | 2893 ft | 216 kts | 299° |
| 2026-05-06 08:17 | 11.81276 | 109.22775 | 2835 ft | 196 kts | 298° |
| 2026-05-06 08:18 | 11.81847 | 109.21570 | 2764 ft | 181 kts | 299° |
| 2026-05-06 08:18 | 11.82384 | 109.20441 | 2688 ft | 174 kts | 300° |
| 2026-05-06 08:18 | 11.82909 | 109.19340 | 2618 ft | 171 kts | 300° |
| 2026-05-06 08:18 | 11.83582 | 109.18373 | 2616 ft | 165 kts | 320° |
| 2026-05-06 08:19 | 11.84513 | 109.17746 | 2612 ft | 156 kts | 342° |
| 2026-05-06 08:19 | 11.85535 | 109.17505 | 2613 ft | 148 kts | 1° |
| 2026-05-06 08:19 | 11.86550 | 109.17635 | 2589 ft | 149 kts | 19° |
| 2026-05-06 08:19 | 11.87527 | 109.17970 | 2448 ft | 147 kts | 21° |
| 2026-05-06 08:20 | 11.88510 | 109.18312 | 2266 ft | 150 kts | 21° |
| 2026-05-06 08:20 | 11.89471 | 109.18645 | 2059 ft | 147 kts | 20° |
| 2026-05-06 08:20 | 11.90436 | 109.18979 | 1846 ft | 145 kts | 19° |
| 2026-05-06 08:20 | 11.91397 | 109.19312 | 1623 ft | 146 kts | 20° |
| 2026-05-06 08:21 | 11.92356 | 109.19644 | 1414 ft | 145 kts | 21° |
| 2026-05-06 08:21 | 11.93318 | 109.19977 | 1182 ft | 144 kts | 20° |
| 2026-05-06 08:21 | 11.94262 | 109.20304 | 984 ft | 142 kts | 21° |
| 2026-05-06 08:21 | 11.95190 | 109.20624 | 767 ft | 141 kts | 23° |
| 2026-05-06 08:22 | 11.96148 | 109.20951 | 593 ft | 146 kts | 22° |
| 2026-05-06 08:22 | 11.97093 | 109.21279 | 347 ft | 138 kts | 23° |
| 2026-05-06 08:22 | 11.98047 | 109.21619 | 169 ft | 147 kts | 21° |
| 2026-05-06 08:22 | 11.98987 | 109.21951 | 48 ft | 128 kts | 18° |
| 2026-05-06 08:23 | 11.99699 | 109.22192 | 52 ft | 91 kts | 18° |
| 2026-05-06 08:23 | 12.00213 | 109.22367 | 51 ft | 70 kts | 19° |
| 2026-05-06 08:23 | 12.00618 | 109.22511 | 51 ft | 47 kts | 17° |
| 2026-05-06 08:23 | 12.00764 | 109.22511 | 54 ft | 18 kts | 346° |
| 2026-05-06 08:24 | 12.00887 | 109.22479 | 54 ft | 19 kts | 346° |
| 2026-05-06 08:24 | 12.01016 | 109.22447 | 54 ft | 19 kts | 347° |
| 2026-05-06 08:24 | 12.01107 | 109.22377 | 53 ft | 16 kts | 296° |
| 2026-05-06 08:24 | 12.01146 | 109.22266 | 50 ft | 18 kts | 289° |
| 2026-05-06 08:25 | 12.01154 | 109.22241 | 53 ft | 0 kts | 289° |
| 2026-05-06 08:25 | 12.01155 | 109.22239 | 53 ft | 0 kts | 289° |
| 2026-05-06 08:26 | 12.01155 | 109.22238 | 53 ft | 1 kts | 289° |
| 2026-05-06 08:26 | 12.01164 | 109.22213 | 53 ft | 8 kts | 289° |
| 2026-05-06 08:27 | 12.01183 | 109.22155 | 53 ft | 9 kts | 288° |
| 2026-05-06 08:27 | 12.01205 | 109.22088 | 51 ft | 11 kts | 289° |
| 2026-05-06 08:27 | 12.01229 | 109.22013 | 53 ft | 12 kts | 286° |
| 2026-05-06 08:27 | 12.01206 | 109.21953 | 53 ft | 8 kts | 181° |
| 2026-05-06 08:28 | 12.01162 | 109.21924 | 53 ft | 8 kts | 210° |
| 2026-05-06 08:28 | 12.01110 | 109.21902 | 53 ft | 9 kts | 197° |
| 2026-05-06 08:28 | 12.01047 | 109.21881 | 53 ft | 10 kts | 199° |
| 2026-05-06 08:28 | 12.00995 | 109.21839 | 53 ft | 10 kts | 257° |
| 2026-05-06 08:29 | 12.01011 | 109.21783 | 53 ft | 6 kts | 291° |
| 2026-05-06 08:29 | 12.01017 | 109.21765 | 50 ft | 2 kts | 289° |
| 2026-05-06 08:29 | 12.01017 | 109.21764 | 51 ft | 0 kts | 289° |